createdAt,value
2022-11-05T00:00:35.227Z,15.90
2022-11-05T00:03:27.793Z,15.90
2022-11-05T00:06:14.667Z,15.89
2022-11-05T00:09:01.538Z,15.89
2022-11-05T00:11:48.400Z,15.85
2022-11-05T00:14:35.306Z,15.78
2022-11-05T00:17:03.253Z,15.72
2022-11-05T00:19:31.031Z,15.68
2022-11-05T00:22:17.747Z,15.66
2022-11-05T00:25:04.519Z,15.70
2022-11-05T00:27:35.608Z,15.72
2022-11-05T00:30:10.026Z,15.75
2022-11-05T00:32:38.254Z,15.78
2022-11-05T00:35:07.538Z,15.82
2022-11-05T00:37:36.348Z,15.87
2022-11-05T00:40:04.653Z,15.90
2022-11-05T00:42:51.429Z,15.94
2022-11-05T00:45:19.650Z,16.00
2022-11-05T00:48:23.111Z,16.04
2022-11-05T00:50:50.981Z,16.08
2022-11-05T00:53:19.390Z,16.11
2022-11-05T00:55:48.020Z,16.12
2022-11-05T00:58:17.448Z,16.15
2022-11-05T01:00:48.998Z,16.17
2022-11-05T01:03:17.986Z,16.17
2022-11-05T01:05:47.316Z,16.16
2022-11-05T01:08:16.283Z,16.16
2022-11-05T01:10:45.728Z,16.17
2022-11-05T01:13:14.601Z,16.18
2022-11-05T01:15:42.766Z,16.17
2022-11-05T01:18:11.105Z,16.17
2022-11-05T01:20:39.223Z,16.16
2022-11-05T01:23:12.993Z,16.18
2022-11-05T01:25:44.619Z,16.17
2022-11-05T01:28:12.619Z,16.16
2022-11-05T01:30:40.417Z,16.18
2022-11-05T01:33:08.896Z,16.18
2022-11-05T01:35:36.943Z,16.14
2022-11-05T01:38:04.753Z,16.11
2022-11-05T01:40:32.909Z,16.11
2022-11-05T01:43:00.822Z,16.07
2022-11-05T01:45:29.740Z,16.05
2022-11-05T01:47:58.048Z,16.08
2022-11-05T01:50:29.556Z,16.08
2022-11-05T01:53:03.225Z,16.03
2022-11-05T01:55:33.989Z,15.99
2022-11-05T01:58:03.250Z,15.99
2022-11-05T02:00:31.737Z,15.94
2022-11-05T02:03:00.128Z,15.72
2022-11-05T02:05:28.840Z,15.68
2022-11-05T02:07:56.658Z,15.71
2022-11-05T02:10:24.434Z,15.76
2022-11-05T02:12:52.847Z,15.82
2022-11-05T02:15:38.608Z,15.82
2022-11-05T02:18:25.125Z,15.84
2022-11-05T02:21:00.185Z,15.84
2022-11-05T02:23:40.237Z,15.83
2022-11-05T02:26:21.937Z,15.76
2022-11-05T02:29:25.011Z,15.68
2022-11-05T02:31:55.788Z,15.64
2022-11-05T02:34:44.904Z,15.66
2022-11-05T02:37:28.190Z,15.69
2022-11-05T02:40:05.519Z,15.72
2022-11-05T02:42:33.225Z,15.76
2022-11-05T02:45:10.777Z,15.82
2022-11-05T02:47:38.910Z,15.91
2022-11-05T02:50:18.513Z,15.93
2022-11-05T02:52:49.439Z,15.93
2022-11-05T02:55:27.008Z,15.94
2022-11-05T02:57:54.975Z,15.95
2022-11-05T03:00:39.410Z,15.97
2022-11-05T03:03:18.541Z,15.96
2022-11-05T03:05:59.003Z,15.91
2022-11-05T03:08:38.998Z,15.85
2022-11-05T03:11:17.241Z,15.83
2022-11-05T03:13:45.102Z,15.83
2022-11-05T03:16:18.159Z,15.85
2022-11-05T03:18:48.732Z,15.86
2022-11-05T03:21:20.003Z,15.88
2022-11-05T03:24:10.747Z,15.91
2022-11-05T03:26:42.151Z,15.97
2022-11-05T03:29:13.458Z,16.01
2022-11-05T03:31:41.794Z,16.03
2022-11-05T03:34:10.605Z,16.01
2022-11-05T03:36:41.313Z,16.00
2022-11-05T03:39:11.403Z,15.97
2022-11-05T03:41:43.318Z,15.89
2022-11-05T03:44:13.217Z,15.87
2022-11-05T03:46:48.079Z,15.79
2022-11-05T03:49:19.198Z,15.77
2022-11-05T03:52:19.699Z,15.75
2022-11-05T03:54:47.555Z,15.74
2022-11-05T03:57:20.856Z,15.75
2022-11-05T03:59:50.595Z,15.75
2022-11-05T04:02:20.084Z,15.75
2022-11-05T04:04:48.823Z,15.72
2022-11-05T04:07:35.453Z,15.67
2022-11-05T04:10:22.475Z,15.62
2022-11-05T04:13:09.050Z,15.60
2022-11-05T04:15:57.310Z,15.55
2022-11-05T04:18:25.078Z,15.48
2022-11-05T04:21:11.967Z,15.44
2022-11-05T04:23:59.584Z,15.42
2022-11-05T04:26:27.719Z,15.42
2022-11-05T04:29:14.298Z,15.44
2022-11-05T04:31:42.069Z,15.46
2022-11-05T04:34:09.914Z,15.47
2022-11-05T04:36:37.914Z,15.49
2022-11-05T04:39:05.712Z,15.49
2022-11-05T04:41:33.537Z,15.51
2022-11-05T04:44:01.263Z,15.50
2022-11-05T04:46:29.407Z,15.46
2022-11-05T04:48:57.562Z,15.44
2022-11-05T04:51:27.630Z,15.43
2022-11-05T04:53:55.598Z,15.44
2022-11-05T04:56:24.640Z,15.45
2022-11-05T04:58:53.033Z,15.46
2022-11-05T05:01:23.169Z,15.48
2022-11-05T05:03:51.745Z,15.49
2022-11-05T05:06:20.130Z,15.50
2022-11-05T05:08:48.898Z,15.49
2022-11-05T05:11:17.845Z,15.48
2022-11-05T05:13:46.203Z,15.49
2022-11-05T05:16:24.602Z,15.45
2022-11-05T05:18:53.306Z,15.43
2022-11-05T05:21:40.966Z,15.42
2022-11-05T05:24:13.765Z,15.45
2022-11-05T05:26:43.159Z,15.48
2022-11-05T05:29:11.626Z,15.49
2022-11-05T05:31:40.208Z,15.52
2022-11-05T05:34:10.687Z,15.51
2022-11-05T05:36:38.540Z,15.52
2022-11-05T05:39:07.115Z,15.49
2022-11-05T05:41:35.210Z,15.45
2022-11-05T05:44:04.419Z,15.43
2022-11-05T05:46:32.438Z,15.41
2022-11-05T05:49:00.339Z,15.41
2022-11-05T05:51:28.272Z,15.45
2022-11-05T05:53:56.332Z,15.47
2022-11-05T05:56:24.752Z,15.48
2022-11-05T05:58:52.851Z,15.50
2022-11-05T06:01:21.716Z,15.52
2022-11-05T06:03:49.933Z,15.55
2022-11-05T06:06:21.260Z,15.55
2022-11-05T06:08:49.581Z,15.55
2022-11-05T06:11:17.479Z,15.53
2022-11-05T06:13:45.451Z,15.53
2022-11-05T06:16:13.574Z,15.53
2022-11-05T06:18:41.921Z,15.54
2022-11-05T06:21:11.058Z,15.54
2022-11-05T06:23:40.223Z,15.56
2022-11-05T06:26:15.634Z,15.59
2022-11-05T06:28:44.325Z,15.61
2022-11-05T06:31:14.402Z,15.65
2022-11-05T06:33:42.659Z,15.66
2022-11-05T06:36:14.541Z,15.68
2022-11-05T06:38:42.541Z,15.68
2022-11-05T06:41:10.955Z,15.69
2022-11-05T06:43:39.484Z,15.70
2022-11-05T06:46:07.868Z,15.72
2022-11-05T06:48:36.203Z,15.75
2022-11-05T06:51:04.676Z,15.75
2022-11-05T06:53:32.540Z,15.75
2022-11-05T06:56:07.390Z,15.79
2022-11-05T06:58:35.914Z,15.82
2022-11-05T07:01:06.176Z,15.86
2022-11-05T07:03:35.153Z,15.90
2022-11-05T07:06:04.413Z,15.95
2022-11-05T07:08:33.636Z,16.02
2022-11-05T07:11:01.614Z,16.08
2022-11-05T07:13:29.573Z,16.13
2022-11-05T07:15:58.071Z,16.16
2022-11-05T07:18:26.004Z,16.18
2022-11-05T07:20:54.450Z,16.21
2022-11-05T07:23:22.677Z,16.25
2022-11-05T07:25:50.644Z,16.28
2022-11-05T07:28:18.809Z,16.33
2022-11-05T07:30:48.781Z,16.37
2022-11-05T07:33:16.836Z,16.39
2022-11-05T07:35:44.735Z,16.41
2022-11-05T07:38:12.638Z,16.41
2022-11-05T07:40:40.693Z,16.42
2022-11-05T07:43:09.125Z,16.42
2022-11-05T07:45:37.207Z,16.43
2022-11-05T07:48:05.525Z,16.43
2022-11-05T07:50:34.659Z,16.41
2022-11-05T07:53:07.384Z,16.38
2022-11-05T07:55:35.617Z,16.34
2022-11-05T07:58:04.182Z,16.31
2022-11-05T08:00:32.295Z,16.30
2022-11-05T08:03:09.511Z,16.30
2022-11-05T08:05:38.913Z,16.27
2022-11-05T08:08:08.610Z,16.26
2022-11-05T08:10:37.447Z,16.26
2022-11-05T08:13:05.861Z,16.27
2022-11-05T08:15:35.010Z,16.27
2022-11-05T08:18:04.434Z,16.29
2022-11-05T08:20:32.769Z,16.33
2022-11-05T08:23:01.228Z,16.37
2022-11-05T08:25:29.475Z,16.42
2022-11-05T08:28:08.649Z,16.47
2022-11-05T08:30:36.847Z,16.49
2022-11-05T08:33:06.285Z,16.50
2022-11-05T08:35:35.591Z,16.55
2022-11-05T08:38:05.156Z,16.60
2022-11-05T08:40:34.563Z,16.63
2022-11-05T08:43:04.302Z,16.68
2022-11-05T08:45:32.627Z,16.72
2022-11-05T08:48:01.288Z,16.75
2022-11-05T08:50:29.854Z,16.80
2022-11-05T08:52:57.694Z,16.87
2022-11-05T08:55:26.152Z,16.96
2022-11-05T08:58:01.834Z,17.04
2022-11-05T09:00:31.414Z,17.14
2022-11-05T09:03:03.461Z,17.26
2022-11-05T09:05:32.277Z,17.38
2022-11-05T09:08:01.520Z,17.52
2022-11-05T09:10:29.639Z,17.66
2022-11-05T09:12:57.540Z,17.77
2022-11-05T09:15:25.884Z,17.88
2022-11-05T09:17:55.226Z,18.02
2022-11-05T09:20:23.922Z,18.15
2022-11-05T09:22:51.816Z,18.27
2022-11-05T09:25:19.863Z,18.37
2022-11-05T09:27:47.757Z,18.45
2022-11-05T09:30:15.915Z,18.55
2022-11-05T09:32:43.819Z,18.66
2022-11-05T09:35:11.687Z,18.73
2022-11-05T09:37:39.769Z,18.74
2022-11-05T09:40:07.896Z,18.75
2022-11-05T09:42:38.465Z,18.72
2022-11-05T09:45:17.647Z,18.71
2022-11-05T09:48:12.689Z,18.74
2022-11-05T09:50:42.909Z,18.70
2022-11-05T09:53:14.912Z,18.65
2022-11-05T09:55:44.262Z,18.59
2022-11-05T09:58:19.030Z,18.53
2022-11-05T10:00:53.101Z,18.47
2022-11-05T10:03:24.802Z,18.46
2022-11-05T10:05:54.833Z,18.44
2022-11-05T10:08:24.760Z,18.45
2022-11-05T10:10:52.557Z,18.50
2022-11-05T10:13:28.498Z,18.55
2022-11-05T10:16:02.709Z,18.61
2022-11-05T10:18:34.530Z,18.63
2022-11-05T10:21:02.627Z,18.60
2022-11-05T10:23:30.805Z,18.63
2022-11-05T10:26:05.534Z,18.69
2022-11-05T10:28:34.705Z,18.72
2022-11-05T10:31:04.367Z,18.74
2022-11-05T10:33:34.664Z,18.76
2022-11-05T10:36:06.621Z,18.79
2022-11-05T10:38:34.435Z,18.80
2022-11-05T10:41:02.392Z,18.80
2022-11-05T10:43:42.216Z,18.80
2022-11-05T10:46:30.421Z,18.75
2022-11-05T10:48:58.132Z,18.70
2022-11-05T10:51:26.011Z,18.67
2022-11-05T10:54:01.523Z,18.65
2022-11-05T10:56:32.416Z,18.63
2022-11-05T10:59:00.997Z,18.64
2022-11-05T11:01:29.472Z,18.61
2022-11-05T11:04:05.422Z,18.62
2022-11-05T11:06:36.858Z,18.60
2022-11-05T11:09:18.071Z,18.62
2022-11-05T11:11:46.078Z,18.66
2022-11-05T11:14:14.026Z,18.72
2022-11-05T11:16:43.189Z,18.84
2022-11-05T11:19:34.515Z,18.98
2022-11-05T11:22:05.383Z,19.12
2022-11-05T11:24:40.378Z,19.22
2022-11-05T11:27:10.663Z,19.32
2022-11-05T11:29:45.075Z,19.43
2022-11-05T11:32:17.148Z,19.50
2022-11-05T11:34:46.142Z,19.52
2022-11-05T11:37:19.783Z,19.52
2022-11-05T11:40:14.838Z,19.51
2022-11-05T11:42:46.054Z,19.54
2022-11-05T11:45:33.103Z,19.60
2022-11-05T11:48:08.295Z,19.65
2022-11-05T11:51:02.417Z,19.66
2022-11-05T11:53:33.425Z,19.64
2022-11-05T11:56:05.618Z,19.61
2022-11-05T11:58:38.817Z,19.61
2022-11-05T12:01:25.626Z,19.60
2022-11-05T12:04:02.995Z,19.61
2022-11-05T12:06:49.607Z,19.60
2022-11-05T12:09:17.668Z,19.59
2022-11-05T12:12:13.035Z,19.56
2022-11-05T12:14:53.705Z,19.52
2022-11-05T12:17:40.454Z,19.45
2022-11-05T12:20:11.408Z,19.38
2022-11-05T12:22:39.623Z,19.34
2022-11-05T12:25:27.953Z,19.31
2022-11-05T12:28:15.974Z,19.30
2022-11-05T12:30:51.232Z,19.29
2022-11-05T12:33:25.157Z,19.31
2022-11-05T12:36:05.518Z,19.34
2022-11-05T12:38:39.373Z,19.36
2022-11-05T12:41:16.398Z,19.36
2022-11-05T12:43:56.325Z,19.34
2022-11-05T12:46:27.253Z,19.32
2022-11-05T12:49:13.744Z,19.32
2022-11-05T12:51:44.705Z,19.32
2022-11-05T12:54:31.587Z,19.31
2022-11-05T12:57:01.876Z,19.29
2022-11-05T12:59:32.898Z,19.27
2022-11-05T13:02:03.745Z,19.29
2022-11-05T13:04:40.351Z,19.33
2022-11-05T13:07:11.247Z,19.34
2022-11-05T13:09:49.431Z,19.36
2022-11-05T13:12:19.568Z,19.38
2022-11-05T13:14:51.872Z,19.40
2022-11-05T13:17:25.013Z,19.43
2022-11-05T13:19:57.455Z,19.44
2022-11-05T13:22:34.738Z,19.45
2022-11-05T13:25:13.344Z,19.45
2022-11-05T13:27:46.011Z,19.46
2022-11-05T13:30:20.131Z,19.44
2022-11-05T13:33:04.168Z,19.42
2022-11-05T13:35:37.401Z,19.39
2022-11-05T13:38:26.235Z,19.39
2022-11-05T13:41:12.600Z,19.36
2022-11-05T13:43:52.924Z,19.35
2022-11-05T13:46:39.464Z,19.36
2022-11-05T13:49:10.595Z,19.35
2022-11-05T13:51:39.521Z,19.36
2022-11-05T13:54:21.468Z,19.38
2022-11-05T13:57:00.191Z,19.39
2022-11-05T13:59:47.441Z,19.35
2022-11-05T14:02:18.924Z,19.31
2022-11-05T14:04:49.236Z,19.23
2022-11-05T14:07:20.559Z,19.20
2022-11-05T14:09:57.313Z,19.14
2022-11-05T14:12:27.938Z,19.10
2022-11-05T14:15:01.183Z,19.07
2022-11-05T14:17:32.356Z,19.05
2022-11-05T14:20:04.261Z,19.05
2022-11-05T14:22:32.504Z,19.03
2022-11-05T14:25:01.354Z,18.99
2022-11-05T14:27:29.078Z,18.95
2022-11-05T14:29:57.370Z,18.93
2022-11-05T14:32:27.498Z,18.92
2022-11-05T14:35:05.009Z,18.89
2022-11-05T14:37:34.846Z,18.85
2022-11-05T14:40:22.823Z,18.81
2022-11-05T14:42:52.013Z,18.78
2022-11-05T14:45:40.350Z,18.76
2022-11-05T14:48:26.125Z,18.74
2022-11-05T14:50:55.020Z,18.71
2022-11-05T14:53:26.689Z,18.67
2022-11-05T14:56:00.963Z,18.63
2022-11-05T14:58:30.628Z,18.61
2022-11-05T15:00:59.224Z,18.58
2022-11-05T15:03:30.211Z,18.56
2022-11-05T15:06:21.281Z,18.55
2022-11-05T15:08:49.344Z,18.54
2022-11-05T15:11:23.163Z,18.51
2022-11-05T15:13:58.585Z,18.46
2022-11-05T15:16:30.665Z,18.44
2022-11-05T15:18:58.863Z,18.42
2022-11-05T15:21:28.424Z,18.39
2022-11-05T15:23:56.821Z,18.37
2022-11-05T15:26:40.419Z,18.36
2022-11-05T15:29:22.296Z,18.33
2022-11-05T15:31:50.736Z,18.31
2022-11-05T15:34:18.559Z,18.29
2022-11-05T15:36:50.045Z,18.27
2022-11-05T15:39:29.413Z,18.26
2022-11-05T15:41:59.071Z,18.22
2022-11-05T15:44:31.841Z,18.17
2022-11-05T15:47:07.342Z,18.09
2022-11-05T15:49:35.255Z,17.99
2022-11-05T15:52:03.424Z,17.91
2022-11-05T15:54:31.952Z,17.83
2022-11-05T15:57:00.168Z,17.79
2022-11-05T15:59:29.388Z,17.78
2022-11-05T16:02:16.218Z,17.77
2022-11-05T16:04:47.678Z,17.75
2022-11-05T16:07:15.746Z,17.72
2022-11-05T16:09:51.092Z,17.69
2022-11-05T16:12:19.840Z,17.64
2022-11-05T16:15:00.287Z,17.60
2022-11-05T16:17:30.703Z,17.57
2022-11-05T16:19:58.943Z,17.55
2022-11-05T16:22:43.734Z,17.53
2022-11-05T16:25:27.470Z,17.52
2022-11-05T16:27:56.823Z,17.61
2022-11-05T16:30:25.144Z,17.74
2022-11-05T16:32:53.321Z,17.72
2022-11-05T16:35:22.654Z,17.66
2022-11-05T16:37:52.468Z,17.61
2022-11-05T16:40:20.663Z,17.53
2022-11-05T16:42:51.239Z,17.45
2022-11-05T16:45:20.536Z,17.42
2022-11-05T16:47:48.590Z,17.38
2022-11-05T16:50:18.502Z,17.34
2022-11-05T16:52:46.889Z,17.31
2022-11-05T16:55:15.288Z,17.28
2022-11-05T16:57:44.511Z,17.21
2022-11-05T17:00:16.964Z,17.11
2022-11-05T17:02:45.356Z,17.02
2022-11-05T17:05:17.520Z,16.97
2022-11-05T17:07:45.642Z,16.93
2022-11-05T17:10:13.959Z,16.89
2022-11-05T17:12:42.689Z,16.89
2022-11-05T17:15:35.781Z,16.88
2022-11-05T17:18:04.535Z,16.85
2022-11-05T17:20:40.640Z,16.82
2022-11-05T17:23:10.429Z,16.80
2022-11-05T17:25:39.778Z,16.78
2022-11-05T17:28:08.427Z,16.75
2022-11-05T17:30:38.608Z,16.69
2022-11-05T17:33:08.313Z,16.68
2022-11-05T17:35:37.884Z,16.62
2022-11-05T17:38:05.788Z,16.58
2022-11-05T17:40:34.086Z,16.57
2022-11-05T17:43:01.915Z,16.57
2022-11-05T17:45:30.073Z,16.52
2022-11-05T17:47:57.911Z,16.49
2022-11-05T17:50:25.854Z,16.50
2022-11-05T17:52:53.668Z,16.51
2022-11-05T17:55:21.944Z,16.53
2022-11-05T17:57:50.931Z,16.54
2022-11-05T18:00:20.854Z,16.54
2022-11-05T18:02:49.631Z,16.52
2022-11-05T18:05:18.686Z,16.47
2022-11-05T18:07:47.103Z,16.42
2022-11-05T18:10:15.505Z,16.39
2022-11-05T18:12:44.129Z,16.36
2022-11-05T18:15:12.685Z,16.32
2022-11-05T18:17:40.830Z,16.28
2022-11-05T18:20:14.179Z,16.25
2022-11-05T18:22:45.514Z,16.20
2022-11-05T18:25:14.282Z,16.15
2022-11-05T18:27:42.274Z,16.15
2022-11-05T18:30:10.963Z,16.41
2022-11-05T18:32:39.171Z,16.55
2022-11-05T18:35:07.703Z,16.53
2022-11-05T18:37:37.603Z,16.50
2022-11-05T18:40:07.129Z,16.44
2022-11-05T18:42:36.410Z,16.39
2022-11-05T18:45:06.074Z,16.33
2022-11-05T18:47:34.478Z,16.29
2022-11-05T18:50:02.649Z,16.24
2022-11-05T18:52:31.925Z,16.20
2022-11-05T18:55:00.340Z,16.15
2022-11-05T18:57:28.842Z,16.10
2022-11-05T18:59:56.653Z,16.06
2022-11-05T19:02:24.666Z,16.02
2022-11-05T19:05:14.472Z,15.98
2022-11-05T19:07:41.552Z,15.92
2022-11-05T19:10:09.495Z,15.86
2022-11-05T19:12:37.532Z,15.81
2022-11-05T19:15:06.600Z,15.78
2022-11-05T19:17:35.226Z,15.74
2022-11-05T19:20:03.424Z,15.71
2022-11-05T19:22:31.981Z,15.65
2022-11-05T19:25:00.278Z,15.59
2022-11-05T19:27:28.255Z,15.60
2022-11-05T19:29:56.329Z,15.56
2022-11-05T19:32:24.988Z,15.55
2022-11-05T19:34:53.123Z,15.52
2022-11-05T19:37:21.479Z,15.50
2022-11-05T19:39:49.384Z,15.47
2022-11-05T19:42:17.260Z,15.49
2022-11-05T19:44:45.566Z,15.46
2022-11-05T19:47:13.823Z,15.45
2022-11-05T19:49:41.555Z,15.43
2022-11-05T19:52:09.296Z,15.39
2022-11-05T19:54:37.887Z,15.31
2022-11-05T19:57:06.503Z,15.30
2022-11-05T19:59:34.429Z,15.29
2022-11-05T20:02:02.699Z,15.26
2022-11-05T20:04:31.152Z,15.20
2022-11-05T20:06:59.091Z,15.18
2022-11-05T20:09:28.047Z,15.21
2022-11-05T20:11:58.936Z,15.20
2022-11-05T20:14:27.007Z,15.17
2022-11-05T20:16:55.064Z,15.14
2022-11-05T20:19:23.823Z,15.11
2022-11-05T20:21:52.009Z,15.06
2022-11-05T20:24:24.816Z,14.98
2022-11-05T20:26:55.522Z,14.93
2022-11-05T20:29:27.866Z,14.90
2022-11-05T20:31:59.159Z,14.91
2022-11-05T20:34:28.477Z,14.90
2022-11-05T20:36:56.579Z,14.84
2022-11-05T20:39:24.751Z,14.81
2022-11-05T20:41:53.488Z,14.76
2022-11-05T20:44:21.402Z,14.70
2022-11-05T20:46:49.276Z,14.58
2022-11-05T20:49:21.267Z,14.62
2022-11-05T20:51:52.443Z,14.60
2022-11-05T20:54:20.724Z,14.57
2022-11-05T20:56:48.591Z,14.60
2022-11-05T20:59:16.717Z,14.55
2022-11-05T21:01:44.801Z,14.53
2022-11-05T21:04:13.251Z,14.51
2022-11-05T21:06:41.488Z,14.51
2022-11-05T21:09:09.491Z,14.49
2022-11-05T21:11:56.211Z,14.49
2022-11-05T21:14:24.586Z,14.45
2022-11-05T21:16:52.893Z,14.46
2022-11-05T21:19:21.750Z,14.41
2022-11-05T21:21:49.997Z,14.35
2022-11-05T21:24:18.491Z,14.33
2022-11-05T21:26:47.143Z,14.34
2022-11-05T21:29:14.928Z,14.34
2022-11-05T21:31:42.725Z,14.31
2022-11-05T21:34:10.870Z,14.29
2022-11-05T21:36:39.250Z,14.25
2022-11-05T21:39:13.006Z,14.16
2022-11-05T21:41:42.740Z,14.11
2022-11-05T21:44:11.020Z,14.08
2022-11-05T21:46:38.922Z,13.98
2022-11-05T21:49:06.791Z,13.93
2022-11-05T21:51:53.757Z,13.94
2022-11-05T21:54:40.370Z,13.97
2022-11-05T21:57:32.469Z,13.90
2022-11-05T22:00:00.923Z,13.88
2022-11-05T22:02:29.177Z,13.88
2022-11-05T22:04:58.940Z,13.83
2022-11-05T22:07:29.019Z,13.84
2022-11-05T22:09:57.348Z,13.81
2022-11-05T22:12:25.526Z,13.78
2022-11-05T22:14:53.837Z,13.73
2022-11-05T22:17:22.001Z,13.67
2022-11-05T22:19:49.831Z,13.65
2022-11-05T22:22:17.692Z,13.59
2022-11-05T22:24:45.480Z,13.48
2022-11-05T22:27:15.493Z,13.42
2022-11-05T22:29:43.820Z,13.40
2022-11-05T22:32:12.409Z,13.36
2022-11-05T22:34:40.225Z,13.35
2022-11-05T22:37:08.580Z,13.34
2022-11-05T22:39:36.408Z,13.33
2022-11-05T22:42:08.449Z,13.31
2022-11-05T22:44:36.986Z,13.31
2022-11-05T22:47:05.538Z,13.28
2022-11-05T22:49:33.886Z,13.28
2022-11-05T22:52:02.349Z,13.31
2022-11-05T22:54:35.106Z,13.27
2022-11-05T22:57:06.125Z,13.26
2022-11-05T22:59:34.733Z,13.30
2022-11-05T23:02:08.224Z,13.31
2022-11-05T23:04:38.856Z,13.32
2022-11-05T23:07:27.960Z,13.33
2022-11-05T23:10:15.011Z,13.36
2022-11-05T23:12:44.305Z,13.35
2022-11-05T23:15:32.323Z,13.33
2022-11-05T23:18:19.006Z,13.31
2022-11-05T23:21:05.872Z,13.34
2022-11-05T23:23:52.375Z,13.36
2022-11-05T23:26:39.052Z,13.36
2022-11-05T23:29:07.113Z,13.36
2022-11-05T23:31:53.911Z,13.37
2022-11-05T23:34:21.653Z,13.36
2022-11-05T23:37:08.255Z,13.38
2022-11-05T23:39:42.225Z,13.36
2022-11-05T23:42:30.556Z,13.31
2022-11-05T23:45:17.226Z,13.31
2022-11-05T23:48:04.113Z,13.34
2022-11-05T23:50:37.102Z,13.38
2022-11-05T23:53:07.548Z,13.37
2022-11-05T23:55:35.974Z,13.37
2022-11-05T23:58:04.137Z,13.34
